Drummond Island, MI

10:03 AM EST on January 26, 2015 (GMT -0500)
Potagannissing Bay Front | Change Station
CLOSE
Current Station
Personal Weather Station
Location: Drummond Island, MI
Elevation: 587 ft
Nearby Weather Stations

Elev 587 ft 46.06 °N, 83.67 °W | Updated 3 seconds ago

Light Snow
Light Snow
5.6 °F
Feels Like -10 °F
N
12.0
Wind Variable Wind from East
Gusts 12.0 mph

Today
High -- | Low -- °F
--% Chance of Precip.
Yesterday
High -- | Low -- °F
Precip. -- in
8:04 AM 5:31 PM
Waxing Crescent, 44% visible
Pressure 30.01 in
Visibility 10.0 miles
Clouds Clear
Windchill -10 °F
Dew Point 2 °F
Humidity 84%
Rainfall 0.00 in
Snow Depth Not available.
UV 1 out of 12
Pollen .10 out of 12
Air Quality Not available.
Flu Activity Not available.
METAR KDRM 261455Z AUTO 10006KT 10SM -SN CLR M13/M16 A3001 RMK AO2 T11351160

More Conditions Fewer Conditions

Pressure 30.01 in
Visibility 10.0 miles
Clouds Clear
Windchill -10 °F
Dew Point 2 °F
Humidity 84%
Rainfall 0.00 in
Snow Depth Not available.
UV 1 out of 12
Pollen .10 out of 12
Air Quality Not available.
Flu Activity Not available.
METAR KDRM 261455Z AUTO 10006KT 10SM -SN CLR M13/M16 A3001 RMK AO2 T11351160

More Conditions Fewer Conditions

Nowcast | as of 10:00 am EST on January 26, 2015

At 11 am...mostly cloudy. Temperature 7 above. Southeast winds 8 mph. At 1 PM...mostly cloudy. Temperature 14. Southeast winds 9 mph. At 3 PM...mostly cloudy. Temperature 15. Southeast winds 9 mph. At 5 PM...mostly cloudy. Temperature 15. Southeast winds 8 mph.

×

10-Day Weather Forecast

Almanac

Astronomy

Jan. 26, 2015 Rise Set
Actual Time
Civil Twilight
Nautical Twilight
Astronomical Twilight
Moon
Length of Visible Light
Length of Day
Tomorrow will be .
, % of the Moon is Illuminated

Today's Extremes

State Highs State Lows

Community

WunderPhotos

Upload Photos

1,790,232 photos uploaded!

WunderBlogs® & News

Nearby

Air Quality

  Air Quality AQ Index Pollutant
Not available.

Snow Depth

Station Depth Elevation

Earthquake Activity

City Distance Mag. Time & Date
Minimum magnitude displayed is 2.5.

Coastal Water Temperatures

Place Temperature

Nearby Weather Stations